BHM weather

Birmingham-Shuttlesworth International Airport
Birmingham, Alabama, United States

Public forecast

Using degrees Fahrenheit for public forecast. Weather courtesy of forecast.io.

Current aviation weather report (METAR) for Birmingham-Shuttlesworth International Airport

Retrieved 2019/12/05 20:53 UTC (1 hour ago):

KBHM 052053Z 16006KT 10SM BKN150 18/M03 A3013 RMK AO2 SLP201 T01831033 55013

Aviation forecast (TAF) for Birmingham-Shuttlesworth International Airport

Retrieved 2019/12/05 18:48 UTC (3 hours ago):

TAF KBHM 051740Z 0518/0618 VRB04KT P6SM SCT250 FM061200 VRB03KT P6SM VCSH OVC090 FM061500 15005KT 6SM -SHRA OVC070